sensor_id;sensor_type;location;lat;lon;timestamp;pressure;altitude;pressure_sealevel;temperature;humidity
62928;BME280;51070;52.236;-0.892;2023-02-20T00:01:21;101587.25;;;6.58;92.97
62928;BME280;51070;52.236;-0.892;2023-02-20T00:03:46;101583.89;;;6.59;93.06
62928;BME280;51070;52.236;-0.892;2023-02-20T00:06:12;101576.02;;;6.59;93.12
62928;BME280;51070;52.236;-0.892;2023-02-20T00:08:37;101583.75;;;6.62;93.19
62928;BME280;51070;52.236;-0.892;2023-02-20T00:11:03;101579.27;;;6.65;93.29
62928;BME280;51070;52.236;-0.892;2023-02-20T00:13:28;101569.56;;;6.66;93.08
62928;BME280;51070;52.236;-0.892;2023-02-20T00:15:54;101574.05;;;6.66;92.88
62928;BME280;51070;52.236;-0.892;2023-02-20T00:18:20;101573.27;;;6.65;93.02
62928;BME280;51070;52.236;-0.892;2023-02-20T00:20:46;101574.08;;;6.64;92.97
62928;BME280;51070;52.236;-0.892;2023-02-20T00:23:11;101573.04;;;6.64;92.88
62928;BME280;51070;52.236;-0.892;2023-02-20T00:25:37;101571.46;;;6.66;92.86
62928;BME280;51070;52.236;-0.892;2023-02-20T00:28:02;101570.10;;;6.69;92.82
62928;BME280;51070;52.236;-0.892;2023-02-20T00:30:28;101570.41;;;6.71;92.86
62928;BME280;51070;52.236;-0.892;2023-02-20T00:32:55;101570.27;;;6.74;92.87
62928;BME280;51070;52.236;-0.892;2023-02-20T00:35:22;101562.44;;;6.76;92.92
62928;BME280;51070;52.236;-0.892;2023-02-20T00:37:48;101568.55;;;6.78;93.05
62928;BME280;51070;52.236;-0.892;2023-02-20T00:40:15;101567.35;;;6.78;93.41
62928;BME280;51070;52.236;-0.892;2023-02-20T00:42:41;101562.15;;;6.77;93.80
62928;BME280;51070;52.236;-0.892;2023-02-20T00:45:08;101566.21;;;6.79;93.74
62928;BME280;51070;52.236;-0.892;2023-02-20T00:47:34;101564.20;;;6.83;93.77
62928;BME280;51070;52.236;-0.892;2023-02-20T00:50:00;101562.79;;;6.88;93.64
62928;BME280;51070;52.236;-0.892;2023-02-20T00:52:25;101551.06;;;6.93;93.53
62928;BME280;51070;52.236;-0.892;2023-02-20T00:54:50;101548.78;;;6.97;93.55
62928;BME280;51070;52.236;-0.892;2023-02-20T00:57:16;101543.66;;;7.01;93.65
62928;BME280;51070;52.236;-0.892;2023-02-20T00:59:41;101542.08;;;7.03;93.39
62928;BME280;51070;52.236;-0.892;2023-02-20T01:02:07;101542.12;;;7.07;93.51
62928;BME280;51070;52.236;-0.892;2023-02-20T01:04:33;101537.73;;;7.08;93.80
62928;BME280;51070;52.236;-0.892;2023-02-20T01:06:58;101538.14;;;7.09;93.48
62928;BME280;51070;52.236;-0.892;2023-02-20T01:09:23;101533.67;;;7.12;93.62
62928;BME280;51070;52.236;-0.892;2023-02-20T01:11:50;101531.74;;;7.14;93.38
62928;BME280;51070;52.236;-0.892;2023-02-20T01:14:16;101529.34;;;7.17;93.48
62928;BME280;51070;52.236;-0.892;2023-02-20T01:16:46;101525.72;;;7.17;93.74
62928;BME280;51070;52.236;-0.892;2023-02-20T01:19:12;101523.58;;;7.15;93.78
62928;BME280;51070;52.236;-0.892;2023-02-20T01:21:38;101524.37;;;7.14;94.10
62928;BME280;51070;52.236;-0.892;2023-02-20T01:24:04;101518.80;;;7.14;94.13
62928;BME280;51070;52.236;-0.892;2023-02-20T01:26:29;101517.70;;;7.12;94.20
62928;BME280;51070;52.236;-0.892;2023-02-20T01:28:55;101518.83;;;7.11;94.09
62928;BME280;51070;52.236;-0.892;2023-02-20T01:31:20;101518.23;;;7.12;94.14
62928;BME280;51070;52.236;-0.892;2023-02-20T01:33:46;101517.34;;;7.12;94.30
62928;BME280;51070;52.236;-0.892;2023-02-20T01:36:12;101511.55;;;7.10;94.23
62928;BME280;51070;52.236;-0.892;2023-02-20T01:38:40;101514.76;;;7.09;94.47
62928;BME280;51070;52.236;-0.892;2023-02-20T01:41:08;101512.23;;;7.07;94.22
62928;BME280;51070;52.236;-0.892;2023-02-20T01:43:34;101514.18;;;7.05;94.33
62928;BME280;51070;52.236;-0.892;2023-02-20T01:48:58;101513.84;;;7.05;94.60
62928;BME280;51070;52.236;-0.892;2023-02-20T01:51:26;101514.45;;;7.07;94.63
62928;BME280;51070;52.236;-0.892;2023-02-20T01:53:53;101514.23;;;7.09;94.97
62928;BME280;51070;52.236;-0.892;2023-02-20T01:56:18;101510.23;;;7.11;94.69
62928;BME280;51070;52.236;-0.892;2023-02-20T01:58:46;101510.67;;;7.13;94.43
62928;BME280;51070;52.236;-0.892;2023-02-20T02:01:14;101510.69;;;7.13;94.36
62928;BME280;51070;52.236;-0.892;2023-02-20T02:03:42;101511.39;;;7.13;94.15
62928;BME280;51070;52.236;-0.892;2023-02-20T02:06:11;101515.17;;;7.13;94.04
62928;BME280;51070;52.236;-0.892;2023-02-20T02:08:38;101516.00;;;7.13;93.81
62928;BME280;51070;52.236;-0.892;2023-02-20T02:11:09;101520.29;;;7.12;93.85
62928;BME280;51070;52.236;-0.892;2023-02-20T02:13:36;101515.08;;;7.11;93.79
62928;BME280;51070;52.236;-0.892;2023-02-20T02:18:46;101513.40;;;7.12;93.91
62928;BME280;51070;52.236;-0.892;2023-02-20T02:33:25;101501.70;;;7.09;93.81
62928;BME280;51070;52.236;-0.892;2023-02-20T02:38:49;101492.20;;;7.05;93.89
62928;BME280;51070;52.236;-0.892;2023-02-20T02:43:59;101482.15;;;7.07;94.10
62928;BME280;51070;52.236;-0.892;2023-02-20T02:46:32;101473.77;;;7.08;94.13
62928;BME280;51070;52.236;-0.892;2023-02-20T02:49:06;101464.86;;;7.08;94.14
62928;BME280;51070;52.236;-0.892;2023-02-20T02:51:38;101465.09;;;7.06;94.19
62928;BME280;51070;52.236;-0.892;2023-02-20T02:54:18;101466.58;;;7.02;94.34
62928;BME280;51070;52.236;-0.892;2023-02-20T02:56:47;101472.61;;;7.00;94.80
62928;BME280;51070;52.236;-0.892;2023-02-20T02:59:26;101471.39;;;6.96;94.87
62928;BME280;51070;52.236;-0.892;2023-02-20T03:01:59;101471.62;;;6.95;94.98
62928;BME280;51070;52.236;-0.892;2023-02-20T03:04:27;101469.56;;;6.92;95.49
62928;BME280;51070;52.236;-0.892;2023-02-20T03:06:56;101467.03;;;6.90;95.58
62928;BME280;51070;52.236;-0.892;2023-02-20T03:09:27;101461.19;;;6.87;96.24
62928;BME280;51070;52.236;-0.892;2023-02-20T03:11:55;101457.04;;;6.83;96.44
62928;BME280;51070;52.236;-0.892;2023-02-20T03:14:37;101455.23;;;6.82;96.50
62928;BME280;51070;52.236;-0.892;2023-02-20T03:17:32;101450.98;;;6.80;96.82
62928;BME280;51070;52.236;-0.892;2023-02-20T03:20:05;101449.91;;;6.76;96.66
62928;BME280;51070;52.236;-0.892;2023-02-20T03:22:39;101448.93;;;6.74;96.52
62928;BME280;51070;52.236;-0.892;2023-02-20T03:25:24;101451.14;;;6.70;96.45
62928;BME280;51070;52.236;-0.892;2023-02-20T03:27:58;101446.85;;;6.68;96.35
62928;BME280;51070;52.236;-0.892;2023-02-20T03:30:38;101442.92;;;6.65;96.40
62928;BME280;51070;52.236;-0.892;2023-02-20T03:35:58;101437.52;;;6.61;96.53
62928;BME280;51070;52.236;-0.892;2023-02-20T03:38:47;101436.14;;;6.61;96.67
62928;BME280;51070;52.236;-0.892;2023-02-20T03:41:35;101433.06;;;6.61;96.59
62928;BME280;51070;52.236;-0.892;2023-02-20T03:44:23;101431.80;;;6.63;96.90
62928;BME280;51070;52.236;-0.892;2023-02-20T03:46:51;101437.11;;;6.62;96.44
62928;BME280;51070;52.236;-0.892;2023-02-20T03:49:20;101435.60;;;6.61;96.59
62928;BME280;51070;52.236;-0.892;2023-02-20T03:51:47;101433.90;;;6.58;96.43
62928;BME280;51070;52.236;-0.892;2023-02-20T03:54:13;101433.80;;;6.51;96.46
62928;BME280;51070;52.236;-0.892;2023-02-20T03:56:45;101431.52;;;6.44;96.67
62928;BME280;51070;52.236;-0.892;2023-02-20T03:59:38;101433.02;;;6.38;97.30
62928;BME280;51070;52.236;-0.892;2023-02-20T04:02:10;101428.11;;;6.33;97.39
62928;BME280;51070;52.236;-0.892;2023-02-20T04:04:43;101430.79;;;6.31;97.56
62928;BME280;51070;52.236;-0.892;2023-02-20T04:07:15;101429.20;;;6.31;97.61
62928;BME280;51070;52.236;-0.892;2023-02-20T04:09:45;101426.24;;;6.30;97.97
62928;BME280;51070;52.236;-0.892;2023-02-20T04:12:21;101425.11;;;6.31;98.03
62928;BME280;51070;52.236;-0.892;2023-02-20T04:14:50;101426.48;;;6.31;98.01
62928;BME280;51070;52.236;-0.892;2023-02-20T04:17:23;101429.63;;;6.30;97.66
62928;BME280;51070;52.236;-0.892;2023-02-20T04:19:50;101432.48;;;6.26;97.91
62928;BME280;51070;52.236;-0.892;2023-02-20T04:22:23;101435.61;;;6.21;98.12
62928;BME280;51070;52.236;-0.892;2023-02-20T04:24:55;101429.64;;;6.19;98.27
62928;BME280;51070;52.236;-0.892;2023-02-20T04:27:22;101431.92;;;6.17;98.63
62928;BME280;51070;52.236;-0.892;2023-02-20T04:29:47;101431.55;;;6.16;99.01
62928;BME280;51070;52.236;-0.892;2023-02-20T04:32:13;101431.82;;;6.15;99.34
62928;BME280;51070;52.236;-0.892;2023-02-20T04:34:38;101433.58;;;6.15;99.52
62928;BME280;51070;52.236;-0.892;2023-02-20T04:37:13;101427.52;;;6.15;99.38
62928;BME280;51070;52.236;-0.892;2023-02-20T04:39:39;101425.18;;;6.13;99.59
62928;BME280;51070;52.236;-0.892;2023-02-20T04:42:05;101420.79;;;6.11;99.88
62928;BME280;51070;52.236;-0.892;2023-02-20T04:44:32;101426.48;;;6.12;99.98
62928;BME280;51070;52.236;-0.892;2023-02-20T04:47:04;101425.39;;;6.13;99.99
62928;BME280;51070;52.236;-0.892;2023-02-20T04:49:30;101428.59;;;6.15;99.97
62928;BME280;51070;52.236;-0.892;2023-02-20T04:51:56;101432.39;;;6.16;99.96
62928;BME280;51070;52.236;-0.892;2023-02-20T04:54:21;101428.39;;;6.18;100.00
62928;BME280;51070;52.236;-0.892;2023-02-20T04:56:47;101433.06;;;6.19;99.98
62928;BME280;51070;52.236;-0.892;2023-02-20T04:59:12;101430.33;;;6.19;100.00
62928;BME280;51070;52.236;-0.892;2023-02-20T05:01:38;101427.83;;;6.17;100.00
62928;BME280;51070;52.236;-0.892;2023-02-20T05:04:03;101419.38;;;6.16;100.00
62928;BME280;51070;52.236;-0.892;2023-02-20T05:06:29;101416.05;;;6.15;100.00
62928;BME280;51070;52.236;-0.892;2023-02-20T05:08:55;101410.16;;;6.14;100.00
62928;BME280;51070;52.236;-0.892;2023-02-20T05:11:21;101405.19;;;6.14;100.00
62928;BME280;51070;52.236;-0.892;2023-02-20T05:13:46;101402.84;;;6.15;100.00
62928;BME280;51070;52.236;-0.892;2023-02-20T05:16:12;101401.67;;;6.18;100.00
62928;BME280;51070;52.236;-0.892;2023-02-20T05:18:40;101402.30;;;6.21;100.00
62928;BME280;51070;52.236;-0.892;2023-02-20T05:21:06;101403.55;;;6.24;100.00
62928;BME280;51070;52.236;-0.892;2023-02-20T05:23:49;101404.98;;;6.31;100.00
62928;BME280;51070;52.236;-0.892;2023-02-20T05:26:20;101407.87;;;6.36;100.00
62928;BME280;51070;52.236;-0.892;2023-02-20T05:28:46;101406.66;;;6.42;100.00
62928;BME280;51070;52.236;-0.892;2023-02-20T05:31:12;101409.00;;;6.46;100.00
62928;BME280;51070;52.236;-0.892;2023-02-20T05:33:37;101405.13;;;6.51;100.00
62928;BME280;51070;52.236;-0.892;2023-02-20T05:36:04;101408.30;;;6.55;100.00
62928;BME280;51070;52.236;-0.892;2023-02-20T05:38:30;101410.64;;;6.60;100.00
62928;BME280;51070;52.236;-0.892;2023-02-20T05:40:55;101412.29;;;6.64;100.00
62928;BME280;51070;52.236;-0.892;2023-02-20T05:43:21;101401.08;;;6.69;100.00
62928;BME280;51070;52.236;-0.892;2023-02-20T05:45:47;101401.36;;;6.74;100.00
62928;BME280;51070;52.236;-0.892;2023-02-20T05:48:13;101397.16;;;6.79;100.00
62928;BME280;51070;52.236;-0.892;2023-02-20T05:50:38;101394.49;;;6.83;100.00
62928;BME280;51070;52.236;-0.892;2023-02-20T05:53:04;101389.73;;;6.87;100.00
62928;BME280;51070;52.236;-0.892;2023-02-20T05:55:30;101386.77;;;6.89;100.00
62928;BME280;51070;52.236;-0.892;2023-02-20T05:57:56;101390.48;;;6.91;100.00
62928;BME280;51070;52.236;-0.892;2023-02-20T06:00:22;101387.99;;;6.93;100.00
62928;BME280;51070;52.236;-0.892;2023-02-20T06:02:48;101385.32;;;6.94;100.00
62928;BME280;51070;52.236;-0.892;2023-02-20T06:05:13;101388.66;;;6.95;100.00
62928;BME280;51070;52.236;-0.892;2023-02-20T06:07:42;101383.50;;;6.98;100.00
62928;BME280;51070;52.236;-0.892;2023-02-20T06:10:07;101379.86;;;7.00;100.00
62928;BME280;51070;52.236;-0.892;2023-02-20T06:12:33;101379.77;;;7.02;100.00
62928;BME280;51070;52.236;-0.892;2023-02-20T06:14:58;101372.77;;;7.03;100.00
62928;BME280;51070;52.236;-0.892;2023-02-20T06:17:24;101372.75;;;7.05;100.00
62928;BME280;51070;52.236;-0.892;2023-02-20T06:19:50;101372.30;;;7.06;100.00
62928;BME280;51070;52.236;-0.892;2023-02-20T06:22:16;101375.29;;;7.08;100.00
62928;BME280;51070;52.236;-0.892;2023-02-20T06:24:44;101375.62;;;7.07;100.00
62928;BME280;51070;52.236;-0.892;2023-02-20T06:27:11;101375.59;;;7.07;100.00
62928;BME280;51070;52.236;-0.892;2023-02-20T06:29:36;101382.27;;;7.06;100.00
62928;BME280;51070;52.236;-0.892;2023-02-20T06:32:02;101390.32;;;7.06;100.00
62928;BME280;51070;52.236;-0.892;2023-02-20T06:34:28;101398.82;;;7.07;100.00
62928;BME280;51070;52.236;-0.892;2023-02-20T06:36:58;101401.52;;;7.09;100.00
62928;BME280;51070;52.236;-0.892;2023-02-20T06:39:24;101406.02;;;7.13;100.00
62928;BME280;51070;52.236;-0.892;2023-02-20T06:41:50;101409.89;;;7.18;100.00
62928;BME280;51070;52.236;-0.892;2023-02-20T06:44:15;101413.47;;;7.23;100.00
62928;BME280;51070;52.236;-0.892;2023-02-20T06:46:40;101415.67;;;7.29;100.00
62928;BME280;51070;52.236;-0.892;2023-02-20T06:49:06;101410.92;;;7.36;100.00
62928;BME280;51070;52.236;-0.892;2023-02-20T06:51:32;101412.09;;;7.44;100.00
62928;BME280;51070;52.236;-0.892;2023-02-20T06:54:00;101402.88;;;7.52;100.00
62928;BME280;51070;52.236;-0.892;2023-02-20T06:56:28;101402.04;;;7.59;100.00
62928;BME280;51070;52.236;-0.892;2023-02-20T06:58:54;101402.73;;;7.65;100.00
62928;BME280;51070;52.236;-0.892;2023-02-20T07:01:22;101401.80;;;7.70;100.00
62928;BME280;51070;52.236;-0.892;2023-02-20T07:03:48;101401.63;;;7.76;100.00
62928;BME280;51070;52.236;-0.892;2023-02-20T07:06:15;101399.02;;;7.82;100.00
62928;BME280;51070;52.236;-0.892;2023-02-20T07:08:40;101398.35;;;7.89;100.00
62928;BME280;51070;52.236;-0.892;2023-02-20T07:11:06;101398.74;;;7.96;100.00
62928;BME280;51070;52.236;-0.892;2023-02-20T07:13:31;101397.09;;;8.04;100.00
62928;BME280;51070;52.236;-0.892;2023-02-20T07:15:57;101401.80;;;8.12;100.00
62928;BME280;51070;52.236;-0.892;2023-02-20T07:18:22;101405.26;;;8.19;100.00
62928;BME280;51070;52.236;-0.892;2023-02-20T07:20:54;101408.28;;;8.27;100.00
62928;BME280;51070;52.236;-0.892;2023-02-20T07:23:20;101401.33;;;8.35;100.00
62928;BME280;51070;52.236;-0.892;2023-02-20T07:25:46;101398.02;;;8.44;100.00
62928;BME280;51070;52.236;-0.892;2023-02-20T07:28:13;101404.02;;;8.50;100.00
62928;BME280;51070;52.236;-0.892;2023-02-20T07:30:38;101408.80;;;8.56;100.00
62928;BME280;51070;52.236;-0.892;2023-02-20T07:33:04;101404.08;;;8.61;100.00
62928;BME280;51070;52.236;-0.892;2023-02-20T07:35:29;101402.14;;;8.67;100.00
62928;BME280;51070;52.236;-0.892;2023-02-20T07:37:55;101408.83;;;8.73;100.00
62928;BME280;51070;52.236;-0.892;2023-02-20T07:40:20;101421.56;;;8.80;100.00
62928;BME280;51070;52.236;-0.892;2023-02-20T07:42:46;101419.27;;;8.86;100.00
62928;BME280;51070;52.236;-0.892;2023-02-20T07:45:12;101412.19;;;8.93;100.00
62928;BME280;51070;52.236;-0.892;2023-02-20T07:47:37;101414.61;;;9.00;99.82
62928;BME280;51070;52.236;-0.892;2023-02-20T07:50:03;101416.24;;;9.05;99.49
62928;BME280;51070;52.236;-0.892;2023-02-20T07:52:28;101415.25;;;9.09;99.10
62928;BME280;51070;52.236;-0.892;2023-02-20T07:54:53;101413.41;;;9.14;98.81
62928;BME280;51070;52.236;-0.892;2023-02-20T07:57:19;101417.11;;;9.19;98.56
62928;BME280;51070;52.236;-0.892;2023-02-20T07:59:45;101418.55;;;9.23;98.28
62928;BME280;51070;52.236;-0.892;2023-02-20T08:02:10;101416.19;;;9.28;97.81
62928;BME280;51070;52.236;-0.892;2023-02-20T08:04:36;101406.59;;;9.33;97.36
62928;BME280;51070;52.236;-0.892;2023-02-20T08:07:01;101405.40;;;9.41;97.05
62928;BME280;51070;52.236;-0.892;2023-02-20T08:09:27;101413.95;;;9.46;96.59
62928;BME280;51070;52.236;-0.892;2023-02-20T08:11:52;101406.50;;;9.49;96.27
62928;BME280;51070;52.236;-0.892;2023-02-20T08:14:17;101406.83;;;9.52;96.08
62928;BME280;51070;52.236;-0.892;2023-02-20T08:16:43;101405.89;;;9.54;96.00
62928;BME280;51070;52.236;-0.892;2023-02-20T08:19:08;101411.41;;;9.58;95.90
62928;BME280;51070;52.236;-0.892;2023-02-20T08:21:34;101420.45;;;9.63;95.72
62928;BME280;51070;52.236;-0.892;2023-02-20T08:23:59;101413.69;;;9.66;95.71
62928;BME280;51070;52.236;-0.892;2023-02-20T08:26:25;101407.32;;;9.70;95.37
62928;BME280;51070;52.236;-0.892;2023-02-20T08:28:51;101396.67;;;9.75;95.40
62928;BME280;51070;52.236;-0.892;2023-02-20T08:31:17;101399.86;;;9.77;95.20
62928;BME280;51070;52.236;-0.892;2023-02-20T08:33:42;101409.66;;;9.80;94.87
62928;BME280;51070;52.236;-0.892;2023-02-20T08:36:08;101410.23;;;9.81;94.54
62928;BME280;51070;52.236;-0.892;2023-02-20T08:38:35;101403.48;;;9.77;94.41
62928;BME280;51070;52.236;-0.892;2023-02-20T08:41:09;101397.95;;;9.73;94.54
62928;BME280;51070;52.236;-0.892;2023-02-20T08:43:36;101391.23;;;9.69;94.52
62928;BME280;51070;52.236;-0.892;2023-02-20T08:46:05;101392.09;;;9.65;94.66
62928;BME280;51070;52.236;-0.892;2023-02-20T08:48:31;101401.67;;;9.64;94.77
62928;BME280;51070;52.236;-0.892;2023-02-20T08:50:57;101407.48;;;9.66;94.74
62928;BME280;51070;52.236;-0.892;2023-02-20T08:53:22;101413.02;;;9.74;94.53
62928;BME280;51070;52.236;-0.892;2023-02-20T08:55:48;101407.70;;;9.82;94.32
62928;BME280;51070;52.236;-0.892;2023-02-20T08:58:18;101401.70;;;9.83;94.13
62928;BME280;51070;52.236;-0.892;2023-02-20T09:00:44;101406.81;;;9.82;94.27
62928;BME280;51070;52.236;-0.892;2023-02-20T09:03:09;101405.65;;;9.82;94.05
62928;BME280;51070;52.236;-0.892;2023-02-20T09:05:34;101398.21;;;9.82;93.86
62928;BME280;51070;52.236;-0.892;2023-02-20T09:08:01;101404.48;;;9.84;93.92
62928;BME280;51070;52.236;-0.892;2023-02-20T09:10:26;101405.58;;;9.85;93.82
62928;BME280;51070;52.236;-0.892;2023-02-20T09:12:52;101399.66;;;9.88;93.89
62928;BME280;51070;52.236;-0.892;2023-02-20T09:15:17;101400.00;;;9.91;93.71
62928;BME280;51070;52.236;-0.892;2023-02-20T09:17:49;101391.11;;;9.93;93.47
62928;BME280;51070;52.236;-0.892;2023-02-20T09:20:16;101386.90;;;9.95;93.28
62928;BME280;51070;52.236;-0.892;2023-02-20T09:22:45;101398.64;;;9.99;93.28
62928;BME280;51070;52.236;-0.892;2023-02-20T09:25:12;101407.70;;;10.04;93.08
62928;BME280;51070;52.236;-0.892;2023-02-20T09:27:37;101420.52;;;10.13;93.08
62928;BME280;51070;52.236;-0.892;2023-02-20T09:30:04;101420.65;;;10.27;92.46
62928;BME280;51070;52.236;-0.892;2023-02-20T09:32:29;101410.77;;;10.38;92.23
62928;BME280;51070;52.236;-0.892;2023-02-20T09:34:55;101402.64;;;10.54;91.52
62928;BME280;51070;52.236;-0.892;2023-02-20T09:37:22;101395.45;;;10.76;90.93
62928;BME280;51070;52.236;-0.892;2023-02-20T09:39:48;101387.17;;;10.80;89.95
62928;BME280;51070;52.236;-0.892;2023-02-20T09:42:52;101385.80;;;10.76;89.46
62928;BME280;51070;52.236;-0.892;2023-02-20T09:45:25;101400.64;;;10.72;89.62
62928;BME280;51070;52.236;-0.892;2023-02-20T09:53:05;101395.67;;;10.77;89.54
62928;BME280;51070;52.236;-0.892;2023-02-20T09:55:35;101391.29;;;10.79;89.43
62928;BME280;51070;52.236;-0.892;2023-02-20T09:58:05;101406.86;;;10.83;89.29
62928;BME280;51070;52.236;-0.892;2023-02-20T10:00:33;101407.20;;;10.92;88.78
62928;BME280;51070;52.236;-0.892;2023-02-20T10:03:15;101410.14;;;11.00;88.24
62928;BME280;51070;52.236;-0.892;2023-02-20T10:05:43;101404.20;;;11.07;87.67
62928;BME280;51070;52.236;-0.892;2023-02-20T10:08:10;101402.19;;;11.16;87.52
62928;BME280;51070;52.236;-0.892;2023-02-20T10:10:39;101407.58;;;11.30;87.70
62928;BME280;51070;52.236;-0.892;2023-02-20T10:13:17;101409.95;;;11.47;86.93
62928;BME280;51070;52.236;-0.892;2023-02-20T10:16:11;101405.60;;;11.64;85.18
62928;BME280;51070;52.236;-0.892;2023-02-20T10:21:44;101416.70;;;11.77;85.13
62928;BME280;51070;52.236;-0.892;2023-02-20T10:29:46;101425.39;;;11.96;84.19
62928;BME280;51070;52.236;-0.892;2023-02-20T10:32:20;101428.07;;;12.11;83.32
62928;BME280;51070;52.236;-0.892;2023-02-20T10:34:59;101426.85;;;12.90;81.52
62928;BME280;51070;52.236;-0.892;2023-02-20T10:37:33;101421.69;;;13.37;79.13
62928;BME280;51070;52.236;-0.892;2023-02-20T10:43:13;101413.27;;;14.09;74.97
62928;BME280;51070;52.236;-0.892;2023-02-20T10:46:06;101393.41;;;14.50;72.86
62928;BME280;51070;52.236;-0.892;2023-02-20T10:48:34;101394.75;;;14.60;72.12
62928;BME280;51070;52.236;-0.892;2023-02-20T10:51:05;101378.05;;;14.81;71.75
62928;BME280;51070;52.236;-0.892;2023-02-20T10:53:47;101363.48;;;15.17;70.51
62928;BME280;51070;52.236;-0.892;2023-02-20T10:58:44;101338.96;;;15.65;67.10
62928;BME280;51070;52.236;-0.892;2023-02-20T11:01:18;101350.11;;;15.65;67.24
62928;BME280;51070;52.236;-0.892;2023-02-20T11:03:52;101350.70;;;15.60;67.74
62928;BME280;51070;52.236;-0.892;2023-02-20T11:06:22;101358.55;;;15.53;67.13
62928;BME280;51070;52.236;-0.892;2023-02-20T11:08:49;101358.08;;;15.47;66.89
62928;BME280;51070;52.236;-0.892;2023-02-20T11:13:57;101348.07;;;15.45;67.88
62928;BME280;51070;52.236;-0.892;2023-02-20T11:16:29;101348.55;;;15.50;67.42
62928;BME280;51070;52.236;-0.892;2023-02-20T11:19:03;101354.91;;;15.52;66.63
62928;BME280;51070;52.236;-0.892;2023-02-20T11:21:42;101361.09;;;15.57;67.31
62928;BME280;51070;52.236;-0.892;2023-02-20T11:24:42;101360.38;;;15.64;66.69
62928;BME280;51070;52.236;-0.892;2023-02-20T11:27:24;101359.89;;;15.74;66.85
62928;BME280;51070;52.236;-0.892;2023-02-20T11:30:11;101364.27;;;15.83;66.44
62928;BME280;51070;52.236;-0.892;2023-02-20T11:32:41;101379.52;;;15.87;65.72
62928;BME280;51070;52.236;-0.892;2023-02-20T11:35:22;101375.24;;;15.91;65.99
62928;BME280;51070;52.236;-0.892;2023-02-20T11:46:14;101373.89;;;16.19;65.12
62928;BME280;51070;52.236;-0.892;2023-02-20T11:51:35;101362.01;;;16.35;64.20
62928;BME280;51070;52.236;-0.892;2023-02-20T11:54:15;101364.98;;;16.36;63.97
62928;BME280;51070;52.236;-0.892;2023-02-20T11:57:01;101357.80;;;16.34;63.80
62928;BME280;51070;52.236;-0.892;2023-02-20T11:59:42;101360.71;;;16.32;63.59
62928;BME280;51070;52.236;-0.892;2023-02-20T12:12:48;101347.54;;;16.18;63.44
62928;BME280;51070;52.236;-0.892;2023-02-20T12:15:16;101349.38;;;16.15;63.78
62928;BME280;51070;52.236;-0.892;2023-02-20T12:17:54;101351.79;;;16.12;63.15
62928;BME280;51070;52.236;-0.892;2023-02-20T12:20:27;101355.29;;;16.12;63.39
62928;BME280;51070;52.236;-0.892;2023-02-20T12:28:12;101342.34;;;16.20;63.26
62928;BME280;51070;52.236;-0.892;2023-02-20T12:33:44;101336.40;;;16.28;63.32
62928;BME280;51070;52.236;-0.892;2023-02-20T12:39:16;101332.58;;;16.29;62.90
62928;BME280;51070;52.236;-0.892;2023-02-20T12:41:48;101325.88;;;16.25;63.37
62928;BME280;51070;52.236;-0.892;2023-02-20T12:44:40;101326.95;;;16.17;63.43
62928;BME280;51070;52.236;-0.892;2023-02-20T13:00:42;101314.98;;;15.93;64.30
62928;BME280;51070;52.236;-0.892;2023-02-20T13:03:12;101314.12;;;16.03;64.19
62928;BME280;51070;52.236;-0.892;2023-02-20T13:05:43;101312.55;;;16.21;64.15
62928;BME280;51070;52.236;-0.892;2023-02-20T13:08:32;101306.45;;;16.40;63.90
62928;BME280;51070;52.236;-0.892;2023-02-20T13:11:05;101291.80;;;16.42;63.51
62928;BME280;51070;52.236;-0.892;2023-02-20T13:13:51;101281.02;;;16.43;63.42
62928;BME280;51070;52.236;-0.892;2023-02-20T13:16:26;101278.58;;;16.43;63.85
62928;BME280;51070;52.236;-0.892;2023-02-20T13:19:03;101279.16;;;16.35;63.74
62928;BME280;51070;52.236;-0.892;2023-02-20T13:21:31;101277.73;;;16.24;63.58
62928;BME280;51070;52.236;-0.892;2023-02-20T13:26:49;101275.70;;;16.18;63.40
62928;BME280;51070;52.236;-0.892;2023-02-20T13:29:24;101276.89;;;16.17;63.76
62928;BME280;51070;52.236;-0.892;2023-02-20T13:31:55;101272.13;;;16.14;63.62
62928;BME280;51070;52.236;-0.892;2023-02-20T13:36:48;101282.15;;;15.90;64.52
62928;BME280;51070;52.236;-0.892;2023-02-20T13:47:00;101271.46;;;15.70;65.32
62928;BME280;51070;52.236;-0.892;2023-02-20T13:57:46;101250.80;;;15.73;65.68
62928;BME280;51070;52.236;-0.892;2023-02-20T14:03:11;101248.63;;;15.96;65.06
62928;BME280;51070;52.236;-0.892;2023-02-20T14:05:38;101246.73;;;16.07;64.83
62928;BME280;51070;52.236;-0.892;2023-02-20T14:08:03;101234.69;;;16.16;64.98
62928;BME280;51070;52.236;-0.892;2023-02-20T14:10:35;101242.04;;;16.27;64.32
62928;BME280;51070;52.236;-0.892;2023-02-20T14:15:30;101231.06;;;16.50;63.71
62928;BME280;51070;52.236;-0.892;2023-02-20T14:17:57;101236.08;;;16.66;63.13
62928;BME280;51070;52.236;-0.892;2023-02-20T14:20:31;101236.30;;;16.69;62.64
62928;BME280;51070;52.236;-0.892;2023-02-20T14:23:08;101232.75;;;16.65;63.22
62928;BME280;51070;52.236;-0.892;2023-02-20T14:25:35;101233.04;;;16.53;63.22
62928;BME280;51070;52.236;-0.892;2023-02-20T14:28:11;101231.51;;;16.55;63.46
62928;BME280;51070;52.236;-0.892;2023-02-20T14:30:37;101228.96;;;16.59;63.35
62928;BME280;51070;52.236;-0.892;2023-02-20T14:33:23;101231.20;;;16.67;62.92
62928;BME280;51070;52.236;-0.892;2023-02-20T14:38:53;101226.55;;;16.70;62.39
62928;BME280;51070;52.236;-0.892;2023-02-20T14:41:23;101222.63;;;16.76;62.72
62928;BME280;51070;52.236;-0.892;2023-02-20T14:43:57;101223.10;;;16.85;62.61
62928;BME280;51070;52.236;-0.892;2023-02-20T14:46:28;101225.89;;;16.85;62.77
62928;BME280;51070;52.236;-0.892;2023-02-20T14:49:06;101225.17;;;16.84;62.77
62928;BME280;51070;52.236;-0.892;2023-02-20T14:51:33;101223.86;;;16.77;62.46
62928;BME280;51070;52.236;-0.892;2023-02-20T14:54:15;101220.91;;;16.57;62.56
62928;BME280;51070;52.236;-0.892;2023-02-20T14:56:42;101217.63;;;16.49;63.04
62928;BME280;51070;52.236;-0.892;2023-02-20T15:02:18;101211.30;;;16.46;63.09
62928;BME280;51070;52.236;-0.892;2023-02-20T15:04:51;101209.12;;;16.41;63.52